Time;durP1;ratioP1;P1;durP2;ratioP2;P2;SDS_P1;SDS_P2;PMS_P1;PMS_P2;Temp;Humidity;BMP_temperature;BMP_pressure;BME280_temperature;BME280_humidity;BME280_pressure;Samples;Min_cycle;Max_cycle;Signal;HPM_P1;HPM_P2
2022/09/30 00:00:39;;;;;;;3.97;3.63;;;13.90;44.80;;;;;;10508817;28;20228;-71
2022/09/30 00:05:43;;;;;;;3.53;2.80;;;13.90;44.90;;;;;;10502576;28;20243;-71
2022/09/30 00:10:46;;;;;;;3.40;3.10;;;13.90;44.80;;;;;;10513193;28;20284;-71
2022/09/30 00:15:50;;;;;;;4.03;3.67;;;13.90;44.70;;;;;;10503234;28;20306;-71
2022/09/30 00:20:54;;;;;;;3.87;3.10;;;13.90;44.70;;;;;;10503518;28;20232;-71
2022/09/30 00:26:02;;;;;;;4.53;4.23;;;13.90;44.70;;;;;;10505141;28;20224;-71
2022/09/30 00:31:08;;;;;;;5.23;4.77;;;13.90;45.00;;;;;;10504654;28;20703;-72
2022/09/30 00:36:13;;;;;;;10.37;7.40;;;13.80;44.90;;;;;;10512684;28;20302;-71
2022/09/30 00:41:16;;;;;;;6.33;5.73;;;13.80;44.80;;;;;;10500377;28;20218;-72
2022/09/30 00:46:26;;;;;;;6.67;5.97;;;13.80;44.90;;;;;;10499982;28;20220;-71
2022/09/30 00:51:33;;;;;;;6.40;5.80;;;13.80;45.20;;;;;;10504882;28;20220;-71
2022/09/30 00:56:42;;;;;;;6.40;5.90;;;13.80;45.20;;;;;;10507054;28;20231;-71
2022/09/30 01:01:46;;;;;;;4.97;4.47;;;13.80;45.30;;;;;;10509650;28;20220;-72
2022/09/30 01:06:50;;;;;;;7.27;6.60;;;13.70;45.10;;;;;;10504163;28;20231;-71
2022/09/30 01:11:54;;;;;;;7.30;6.70;;;13.70;45.10;;;;;;10499401;28;20767;-71
2022/09/30 01:17:06;;;;;;;15.43;6.27;;;13.70;45.10;;;;;;10509841;28;20886;-71
2022/09/30 01:22:40;;;;;;;8.90;6.50;;;13.70;45.20;;;;;;10502882;28;20231;-71
2022/09/30 01:28:18;;;;;;;15.97;6.53;;;13.60;45.30;;;;;;10480491;28;20254;-71
2022/09/30 01:33:34;;;;;;;6.10;5.70;;;13.50;45.20;;;;;;10506547;28;20242;-71
2022/09/30 01:38:48;;;;;;;6.60;6.07;;;13.50;45.20;;;;;;10501268;28;20273;-71
2022/09/30 01:44:03;;;;;;;6.80;6.20;;;13.40;45.10;;;;;;10502223;28;20935;-71
2022/09/30 01:49:16;;;;;;;6.17;5.67;;;13.40;44.90;;;;;;10501790;28;20296;-71
2022/09/30 01:54:25;;;;;;;6.47;5.97;;;13.30;45.10;;;;;;10502989;28;20227;-71
2022/09/30 01:59:35;;;;;;;6.60;5.83;;;13.30;44.70;;;;;;10502356;28;20228;-71
2022/09/30 02:04:45;;;;;;;5.70;5.30;;;13.30;45.00;;;;;;10502821;28;20219;-70
2022/09/30 02:09:54;;;;;;;5.43;5.03;;;13.20;45.20;;;;;;10505873;28;20220;-71
2022/09/30 02:15:01;;;;;;;5.83;5.43;;;13.10;45.30;;;;;;10487759;28;20277;-71
2022/09/30 02:20:12;;;;;;;6.30;5.90;;;13.10;45.40;;;;;;10503221;28;20585;-71
2022/09/30 02:25:19;;;;;;;7.80;5.30;;;13.10;46.20;;;;;;10494661;28;20799;-71
2022/09/30 02:30:22;;;;;;;5.90;5.40;;;13.20;45.40;;;;;;10492953;28;20239;-71
2022/09/30 02:35:32;;;;;;;17.40;6.37;;;13.10;45.20;;;;;;10512863;28;20243;-71
2022/09/30 02:40:41;;;;;;;6.30;5.80;;;13.10;45.50;;;;;;10512267;28;20235;-71
2022/09/30 02:45:54;;;;;;;7.90;6.10;;;13.10;46.30;;;;;;10509634;28;20367;-71
2022/09/30 02:51:05;;;;;;;7.67;5.47;;;13.10;46.00;;;;;;10517981;28;20219;-71
2022/09/30 02:56:17;;;;;;;15.97;6.23;;;13.10;45.60;;;;;;10511988;28;20334;-71
2022/09/30 03:01:20;;;;;;;5.67;5.27;;;13.10;45.70;;;;;;10517894;28;20223;-71
2022/09/30 03:11:41;;;;;;;10.93;5.28;;;13.10;45.50;;;;;;2956428;26;1274971;-76
2022/09/30 03:17:09;;;;;;;5.60;5.20;;;13.00;45.50;;;;;;10475607;28;20235;-76
2022/09/30 03:22:50;;;;;;;38.33;5.43;;;13.00;45.90;;;;;;10476806;28;20236;-77
2022/09/30 03:28:05;;;;;;;15.50;4.87;;;13.00;45.80;;;;;;10486317;28;20282;-76
2022/09/30 03:33:12;;;;;;;36.17;5.40;;;13.00;45.80;;;;;;10476773;28;20695;-76
2022/09/30 03:38:25;;;;;;;9.07;5.67;;;12.90;45.60;;;;;;10476393;28;20830;-76
2022/09/30 03:43:35;;;;;;;26.07;4.43;;;12.90;45.70;;;;;;10484059;28;20232;-77
2022/09/30 03:48:40;;;;;;;17.47;4.43;;;12.80;45.50;;;;;;10475019;28;20855;-76
2022/09/30 03:53:45;;;;;;;9.60;3.87;;;12.80;45.20;;;;;;10473391;28;20229;-76
2022/09/30 03:58:50;;;;;;;15.70;3.77;;;12.70;45.10;;;;;;10489019;28;20331;-77
2022/09/30 04:03:54;;;;;;;7.80;3.60;;;12.60;45.10;;;;;;10488358;28;20274;-76
2022/09/30 04:08:57;;;;;;;39.50;4.70;;;12.60;45.00;;;;;;10482405;28;20286;-75
2022/09/30 04:14:02;;;;;;;5.10;3.80;;;12.50;45.10;;;;;;10487789;28;20739;-76
2022/09/30 04:19:05;;;;;;;5.07;4.67;;;12.50;45.40;;;;;;10481725;28;20275;-77
2022/09/30 04:24:08;;;;;;;21.63;4.93;;;12.50;45.40;;;;;;10472434;28;20266;-76
2022/09/30 04:29:13;;;;;;;3.77;3.47;;;12.40;45.50;;;;;;10479329;28;20236;-76
2022/09/30 04:34:16;;;;;;;4.17;3.83;;;12.40;45.50;;;;;;10479992;28;20323;-76
2022/09/30 04:39:19;;;;;;;37.47;4.37;;;12.40;45.40;;;;;;10463116;28;20229;-77
2022/09/30 04:44:24;;;;;;;28.70;4.37;;;12.40;45.20;;;;;;10495385;28;20254;-77
2022/09/30 04:49:27;;;;;;;15.07;4.70;;;12.30;45.50;;;;;;10473347;28;20704;-77
2022/09/30 04:54:30;;;;;;;7.30;4.20;;;12.20;45.20;;;;;;10478193;28;20729;-77
2022/09/30 04:59:35;;;;;;;25.73;4.27;;;12.20;45.40;;;;;;10481929;28;20236;-77
2022/09/30 05:04:39;;;;;;;35.40;4.00;;;12.10;45.50;;;;;;10473468;28;20227;-77
2022/09/30 05:09:42;;;;;;;32.03;4.07;;;12.00;45.40;;;;;;10483263;28;20236;-77
2022/09/30 05:14:46;;;;;;;8.77;3.63;;;11.90;45.10;;;;;;10476485;28;20971;-77
2022/09/30 05:19:49;;;;;;;20.97;4.23;;;11.70;45.60;;;;;;10474525;28;20228;-78
2022/09/30 05:24:54;;;;;;;7.03;4.30;;;11.60;45.70;;;;;;10484089;28;20217;-78
2022/09/30 05:29:59;;;;;;;4.70;4.40;;;11.50;46.00;;;;;;10484345;28;20311;-79
2022/09/30 05:35:03;;;;;;;7.00;4.07;;;11.50;46.80;;;;;;10477356;28;20616;-79
2022/09/30 05:40:08;;;;;;;4.20;3.90;;;11.50;47.00;;;;;;10478869;28;20247;-78
2022/09/30 05:45:13;;;;;;;4.53;4.13;;;11.50;46.20;;;;;;10479051;28;20257;-78
2022/09/30 05:50:16;;;;;;;6.87;4.40;;;11.50;46.60;;;;;;10483665;28;20234;-78
2022/09/30 05:55:21;;;;;;;4.07;3.87;;;11.50;46.40;;;;;;10486229;28;20769;-78
2022/09/30 06:00:25;;;;;;;4.73;4.33;;;11.60;46.50;;;;;;10482008;28;20240;-79
2022/09/30 06:05:29;;;;;;;11.00;4.37;;;11.60;46.80;;;;;;10473238;28;20232;-79
2022/09/30 06:10:32;;;;;;;5.33;4.83;;;11.70;46.60;;;;;;10481304;28;20293;-79
2022/09/30 06:15:40;;;;;;;15.60;5.13;;;11.70;46.60;;;;;;10485978;28;20224;-79
2022/09/30 06:20:43;;;;;;;49.93;5.53;;;11.80;46.50;;;;;;10481611;28;20235;-78
2022/09/30 06:25:49;;;;;;;8.60;7.00;;;11.80;45.80;;;;;;10478757;28;20658;-78
2022/09/30 06:30:55;;;;;;;4.47;4.17;;;11.70;45.80;;;;;;10483575;28;20966;-79
2022/09/30 06:36:03;;;;;;;5.33;4.13;;;11.70;46.30;;;;;;10481090;28;20274;-79
2022/09/30 06:41:06;;;;;;;14.77;4.77;;;11.70;46.70;;;;;;10478685;28;20237;-78
2022/09/30 06:46:11;;;;;;;6.37;4.30;;;11.70;46.20;;;;;;10482708;28;20235;-78
2022/09/30 06:51:32;;;;;;;4.97;4.57;;;11.80;46.60;;;;;;10495979;28;20689;-78
2022/09/30 06:56:35;;;;;;;55.67;6.27;;;11.80;47.30;;;;;;10459739;28;20282;-80
2022/09/30 07:01:41;;;;;;;22.67;7.20;;;11.90;46.90;;;;;;10483288;28;20279;-79
2022/09/30 07:06:44;;;;;;;16.70;6.60;;;11.90;47.00;;;;;;10492219;28;20236;-79
2022/09/30 07:11:47;;;;;;;19.63;6.03;;;12.00;46.90;;;;;;10497712;28;20742;-78
2022/09/30 07:16:52;;;;;;;16.00;5.77;;;12.00;46.60;;;;;;10490518;28;20705;-78
2022/09/30 07:21:55;;;;;;;30.87;6.23;;;12.00;47.10;;;;;;10482397;28;20225;-78
2022/09/30 07:27:19;;;;;;;6.03;5.63;;;12.10;47.00;;;;;;10476338;28;20229;-78
2022/09/30 07:32:24;;;;;;;5.80;5.30;;;12.10;47.00;;;;;;10494414;28;20730;-78
2022/09/30 07:37:30;;;;;;;6.77;6.27;;;12.10;47.50;;;;;;10476627;28;20261;-79
2022/09/30 07:42:36;;;;;;;8.90;6.37;;;12.20;47.50;;;;;;10481006;28;20232;-78
2022/09/30 07:47:40;;;;;;;7.90;6.73;;;12.30;47.90;;;;;;10458498;28;20236;-79
2022/09/30 07:52:44;;;;;;;8.80;7.23;;;12.40;48.00;;;;;;10468199;28;20236;-78
2022/09/30 07:57:48;;;;;;;10.83;7.43;;;12.40;48.00;;;;;;10461000;28;20279;-79
2022/09/30 08:02:53;;;;;;;9.00;8.13;;;12.50;48.10;;;;;;10497823;28;20278;-79
2022/09/30 08:07:56;;;;;;;9.00;8.20;;;12.50;48.10;;;;;;10467537;28;20232;-78
2022/09/30 08:12:59;;;;;;;9.80;8.90;;;12.60;47.90;;;;;;10495194;28;20224;-79
2022/09/30 08:18:07;;;;;;;10.27;9.40;;;12.60;48.20;;;;;;10486258;28;20707;-78
2022/09/30 08:23:10;;;;;;;9.63;8.73;;;12.60;48.20;;;;;;10455868;28;20279;-78
2022/09/30 08:28:14;;;;;;;9.80;8.90;;;12.70;48.00;;;;;;10455663;28;20241;-79
2022/09/30 08:33:19;;;;;;;8.60;7.80;;;12.70;48.20;;;;;;10464340;28;20647;-79
2022/09/30 08:38:22;;;;;;;12.50;11.13;;;12.80;49.10;;;;;;10468741;28;20637;-78
2022/09/30 08:43:31;;;;;;;18.90;16.90;;;12.90;48.90;;;;;;10462460;28;20228;-79
2022/09/30 08:48:48;;;;;;;12.03;10.83;;;13.00;49.30;;;;;;10489855;28;20224;-78
2022/09/30 08:54:16;;;;;;;13.27;12.00;;;13.10;49.80;;;;;;10490499;28;20631;-78
2022/09/30 08:59:28;;;;;;;12.27;11.17;;;13.20;49.80;;;;;;10494613;28;20236;-78
2022/09/30 09:04:33;;;;;;;12.80;11.60;;;13.30;49.80;;;;;;10480989;28;20767;-78
2022/09/30 09:09:48;;;;;;;13.93;12.73;;;13.50;49.20;;;;;;10470679;28;20287;-78
2022/09/30 09:15:11;;;;;;;13.07;11.87;;;13.60;49.40;;;;;;10461018;28;20715;-79
2022/09/30 09:20:19;;;;;;;11.67;10.47;;;13.70;49.20;;;;;;10484074;28;20701;-78
2022/09/30 09:25:27;;;;;;;10.77;9.87;;;13.70;48.70;;;;;;10451918;28;20244;-78
2022/09/30 09:30:42;;;;;;;10.00;9.17;;;13.80;48.60;;;;;;10468107;28;20716;-78
2022/09/30 09:35:54;;;;;;;10.13;9.33;;;14.00;48.60;;;;;;10487978;28;20255;-78
2022/09/30 09:41:12;;;;;;;8.97;8.27;;;14.00;48.70;;;;;;10482456;28;20243;-81
2022/09/30 09:46:22;;;;;;;9.23;8.53;;;14.10;49.00;;;;;;10474427;28;20235;-78
2022/09/30 09:51:34;;;;;;;9.13;8.43;;;14.30;48.30;;;;;;10449385;28;20235;-77
2022/09/30 09:56:37;;;;;;;9.13;8.33;;;14.40;48.70;;;;;;10467786;28;20576;-78
2022/09/30 10:01:42;;;;;;;9.00;8.40;;;14.50;48.60;;;;;;10490654;28;20247;-77
2022/09/30 10:06:52;;;;;;;8.97;8.27;;;14.60;48.40;;;;;;10490768;28;20220;-77
2022/09/30 10:12:37;;;;;;;8.40;7.70;;;14.80;48.40;;;;;;10490551;28;20231;-77
2022/09/30 10:17:40;;;;;;;8.10;7.53;;;14.90;48.10;;;;;;10403807;28;20716;-77
2022/09/30 10:22:47;;;;;;;7.40;6.90;;;15.00;48.90;;;;;;10465619;28;20240;-79
2022/09/30 10:27:56;;;;;;;7.93;7.23;;;15.20;47.60;;;;;;10468980;28;20261;-79
2022/09/30 10:33:03;;;;;;;7.07;6.57;;;15.30;47.30;;;;;;10473276;28;20228;-78
2022/09/30 10:38:13;;;;;;;6.93;6.33;;;15.40;47.60;;;;;;10472302;28;20241;-78
2022/09/30 10:43:23;;;;;;;6.70;6.20;;;15.50;46.20;;;;;;10472788;28;20236;-78
2022/09/30 10:48:30;;;;;;;5.80;5.20;;;15.70;46.10;;;;;;10465445;28;20236;-78
2022/09/30 10:53:35;;;;;;;5.93;5.43;;;15.80;45.90;;;;;;10460437;28;20228;-77
2022/09/30 10:58:45;;;;;;;4.63;4.23;;;15.90;45.70;;;;;;10469108;28;20240;-79
2022/09/30 11:03:58;;;;;;;4.30;3.90;;;16.10;43.80;;;;;;10494623;28;20240;-79
2022/09/30 11:09:09;;;;;;;4.80;4.47;;;16.20;44.10;;;;;;10475246;28;20295;-80
2022/09/30 11:14:26;;;;;;;4.47;4.17;;;16.30;44.60;;;;;;10481167;28;20232;-78
2022/09/30 11:19:36;;;;;;;4.93;4.53;;;16.40;44.30;;;;;;10474545;28;20232;-79
2022/09/30 11:24:46;;;;;;;4.90;4.50;;;16.60;44.40;;;;;;10458278;28;20718;-77
2022/09/30 11:30:02;;;;;;;4.30;4.00;;;16.80;44.20;;;;;;10468168;28;20228;-77
2022/09/30 11:35:23;;;;;;;3.97;3.67;;;16.90;43.50;;;;;;10492983;28;20219;-77
2022/09/30 11:40:38;;;;;;;3.90;3.60;;;17.00;43.00;;;;;;10468475;28;20232;-76
2022/09/30 11:46:12;;;;;;;3.57;3.37;;;17.10;42.90;;;;;;10475639;28;20282;-78
2022/09/30 11:51:23;;;;;;;4.50;4.20;;;17.10;42.80;;;;;;10487266;28;20224;-79
2022/09/30 11:56:39;;;;;;;4.00;3.67;;;17.10;42.90;;;;;;10478406;28;20228;-78
2022/09/30 12:01:45;;;;;;;4.30;3.90;;;17.20;42.90;;;;;;10471335;28;20259;-79
2022/09/30 12:06:54;;;;;;;3.97;3.67;;;17.20;43.40;;;;;;10486064;28;20228;-81
2022/09/30 12:12:02;;;;;;;3.47;3.27;;;17.30;43.40;;;;;;10483462;28;20271;-80
2022/09/30 12:17:13;;;;;;;3.43;3.13;;;17.40;42.90;;;;;;10478017;28;20252;-79
2022/09/30 12:22:20;;;;;;;3.27;3.07;;;17.50;43.20;;;;;;10478805;28;20255;-80
2022/09/30 12:27:32;;;;;;;3.77;3.47;;;17.60;42.90;;;;;;10478534;28;20263;-79
2022/09/30 12:32:59;;;;;;;3.33;3.07;;;17.70;41.90;;;;;;10474103;28;20224;-80
2022/09/30 12:38:19;;;;;;;3.07;2.87;;;17.70;41.80;;;;;;10480722;28;20227;-79
2022/09/30 12:44:01;;;;;;;3.40;3.20;;;17.70;41.70;;;;;;10481219;28;20247;-79
2022/09/30 12:49:09;;;;;;;3.23;3.03;;;17.70;41.40;;;;;;10469021;28;20985;-80
2022/09/30 12:54:16;;;;;;;3.00;2.80;;;17.80;41.90;;;;;;10477584;28;20231;-80
2022/09/30 12:59:25;;;;;;;3.20;3.00;;;17.80;41.90;;;;;;10471058;28;20232;-80
2022/09/30 13:04:35;;;;;;;2.90;2.70;;;17.80;41.40;;;;;;10472127;28;20220;-79
2022/09/30 13:10:00;;;;;;;3.30;3.00;;;17.90;41.20;;;;;;10470946;28;20240;-80
2022/09/30 13:15:45;;;;;;;3.30;3.10;;;18.00;41.40;;;;;;10478088;28;20235;-79
2022/09/30 13:20:55;;;;;;;2.60;2.40;;;18.00;41.20;;;;;;10470014;28;20724;-80
2022/09/30 13:25:58;;;;;;;2.77;2.57;;;18.10;40.80;;;;;;10473234;28;20316;-77
2022/09/30 13:31:17;;;;;;;3.20;3.00;;;18.20;42.20;;;;;;10488831;28;20232;-76
2022/09/30 13:36:31;;;;;;;3.27;2.97;;;18.20;40.90;;;;;;10482747;28;20323;-75
2022/09/30 13:41:37;;;;;;;3.33;3.00;;;18.20;40.00;;;;;;10483577;28;20708;-76
2022/09/30 13:46:48;;;;;;;3.37;3.07;;;18.20;41.50;;;;;;10471182;28;20228;-75
2022/09/30 13:51:55;;;;;;;3.53;3.33;;;18.30;40.80;;;;;;10466381;28;20231;-75
2022/09/30 13:56:59;;;;;;;4.57;3.10;;;18.20;40.90;;;;;;10491072;28;20244;-75
2022/09/30 14:02:38;;;;;;;2.80;2.60;;;18.30;41.30;;;;;;10491151;28;20224;-76
2022/09/30 14:07:55;;;;;;;2.97;2.67;;;18.20;40.60;;;;;;10457909;28;20229;-75
2022/09/30 14:13:14;;;;;;;5.50;2.93;;;18.20;40.40;;;;;;10448618;28;21000;-75
2022/09/30 14:18:52;;;;;;;3.70;3.40;;;18.20;40.40;;;;;;10449215;28;20240;-81
2022/09/30 14:24:03;;;;;;;2.97;2.77;;;18.20;40.80;;;;;;10433891;28;20232;-78
2022/09/30 14:29:17;;;;;;;3.37;3.10;;;18.30;40.20;;;;;;10487804;28;20281;-78
2022/09/30 14:34:23;;;;;;;3.17;2.90;;;18.30;39.70;;;;;;10469908;28;20810;-78
2022/09/30 14:39:31;;;;;;;3.17;2.87;;;18.30;40.60;;;;;;10473020;28;20236;-78
2022/09/30 14:44:35;;;;;;;3.10;2.90;;;18.30;40.20;;;;;;10483668;28;20228;-79
2022/09/30 14:49:40;;;;;;;3.60;3.40;;;18.30;40.60;;;;;;10481556;28;20274;-80
2022/09/30 14:54:48;;;;;;;4.50;4.20;;;18.40;40.40;;;;;;10479392;28;20235;-78
2022/09/30 14:59:51;;;;;;;3.27;3.07;;;18.40;39.50;;;;;;10498542;28;20716;-77
2022/09/30 15:04:58;;;;;;;3.30;3.10;;;18.30;40.60;;;;;;10496436;28;20239;-79
2022/09/30 15:10:06;;;;;;;4.33;4.00;;;18.30;40.10;;;;;;10498195;28;20712;-77
2022/09/30 15:15:25;;;;;;;5.00;4.60;;;18.30;40.20;;;;;;10479866;28;20237;-76
2022/09/30 15:20:32;;;;;;;3.30;3.00;;;18.30;39.90;;;;;;10474512;28;20266;-76
2022/09/30 15:25:38;;;;;;;3.00;2.80;;;18.30;40.40;;;;;;10474653;28;20228;-76
2022/09/30 15:30:42;;;;;;;2.60;2.37;;;18.30;40.00;;;;;;10483256;28;20304;-76
2022/09/30 15:35:45;;;;;;;2.50;2.30;;;18.30;40.70;;;;;;10465586;28;20224;-77
2022/09/30 15:40:58;;;;;;;4.10;3.60;;;18.30;40.60;;;;;;10490916;28;20239;-77
2022/09/30 15:46:26;;;;;;;2.50;2.30;;;18.30;40.20;;;;;;10472912;28;20235;-77
2022/09/30 15:51:36;;;;;;;2.97;2.20;;;18.30;40.10;;;;;;10480354;28;20251;-77
2022/09/30 15:56:42;;;;;;;2.83;2.20;;;18.30;40.10;;;;;;10493464;28;20228;-77
2022/09/30 16:01:47;;;;;;;2.37;2.17;;;18.30;40.80;;;;;;10493715;28;20239;-77
2022/09/30 16:06:53;;;;;;;1.97;1.87;;;18.30;41.20;;;;;;10494053;28;20237;-77
2022/09/30 16:12:08;;;;;;;2.17;1.80;;;18.30;40.90;;;;;;10493536;28;20250;-77
2022/09/30 16:17:17;;;;;;;2.43;1.90;;;18.30;40.40;;;;;;10493409;28;20234;-79
2022/09/30 16:22:48;;;;;;;3.30;1.90;;;18.30;40.60;;;;;;10493977;28;20240;-77
2022/09/30 16:27:57;;;;;;;2.37;1.77;;;18.30;40.60;;;;;;10479845;28;20236;-76
2022/09/30 16:33:05;;;;;;;2.00;1.80;;;18.20;40.60;;;;;;10455083;28;20232;-76
2022/09/30 16:38:12;;;;;;;1.80;1.70;;;18.20;40.80;;;;;;10455216;28;20240;-76
2022/09/30 16:43:17;;;;;;;1.77;1.67;;;18.20;40.90;;;;;;10455781;28;20274;-76
2022/09/30 16:48:20;;;;;;;1.90;1.80;;;18.10;41.00;;;;;;10457510;28;20236;-76
2022/09/30 16:53:23;;;;;;;2.33;2.13;;;18.10;41.00;;;;;;10455674;28;20283;-76
2022/09/30 16:58:28;;;;;;;2.50;2.30;;;18.00;40.80;;;;;;10455717;28;20232;-76
2022/09/30 17:03:31;;;;;;;2.40;2.10;;;18.00;40.90;;;;;;10464150;28;20232;-76
2022/09/30 17:08:35;;;;;;;2.40;2.30;;;17.90;41.00;;;;;;10457020;28;20665;-76
2022/09/30 17:13:39;;;;;;;2.30;2.10;;;17.90;41.00;;;;;;10461261;28;20630;-76
2022/09/30 17:18:42;;;;;;;2.40;2.20;;;17.80;41.00;;;;;;10459183;28;20599;-75
2022/09/30 17:23:46;;;;;;;2.70;2.50;;;17.80;41.00;;;;;;10458697;28;20232;-76
2022/09/30 17:28:50;;;;;;;3.47;3.07;;;17.80;41.20;;;;;;10464801;28;20864;-76
2022/09/30 17:33:56;;;;;;;3.30;2.80;;;17.70;41.00;;;;;;10459014;28;20220;-76
2022/09/30 17:39:00;;;;;;;2.80;2.60;;;17.70;41.50;;;;;;10462973;28;21063;-75
2022/09/30 17:44:04;;;;;;;3.40;2.30;;;17.60;41.50;;;;;;10459809;28;20311;-76
2022/09/30 17:49:08;;;;;;;2.90;2.60;;;17.60;41.60;;;;;;10460966;28;20725;-76
2022/09/30 17:54:11;;;;;;;2.37;2.13;;;17.60;41.70;;;;;;10464673;28;20586;-76
2022/09/30 17:59:20;;;;;;;2.30;2.20;;;17.50;41.80;;;;;;10459899;28;20237;-75
2022/09/30 18:04:24;;;;;;;2.50;2.30;;;17.50;41.90;;;;;;10467536;28;20286;-75
2022/09/30 18:09:28;;;;;;;4.67;3.00;;;17.50;41.80;;;;;;10464085;28;20316;-75
2022/09/30 18:14:34;;;;;;;4.03;3.73;;;17.40;41.70;;;;;;10472332;28;20301;-75
2022/09/30 18:19:37;;;;;;;5.43;4.60;;;17.40;41.60;;;;;;10471507;28;20232;-75
2022/09/30 18:30:04;;;;;;;4.47;4.07;;;17.30;41.70;;;;;;10467500;28;20273;-75
2022/09/30 18:35:11;;;;;;;4.17;3.87;;;17.20;41.60;;;;;;10467739;28;20245;-76
2022/09/30 18:40:16;;;;;;;4.47;4.07;;;17.20;41.80;;;;;;10465838;28;20777;-76
2022/09/30 18:45:21;;;;;;;5.93;5.43;;;17.10;42.10;;;;;;10465371;28;20648;-75
2022/09/30 18:50:25;;;;;;;5.17;4.77;;;17.10;42.20;;;;;;10465098;28;20266;-75
2022/09/30 18:55:28;;;;;;;5.67;5.17;;;17.10;42.20;;;;;;10469069;28;20233;-75
2022/09/30 19:00:33;;;;;;;6.73;5.97;;;17.10;42.30;;;;;;10461293;28;20253;-75
2022/09/30 19:05:36;;;;;;;7.80;7.03;;;17.00;42.40;;;;;;10459058;28;20235;-75
2022/09/30 19:10:40;;;;;;;7.43;6.83;;;17.10;42.50;;;;;;10461754;28;20232;-75
2022/09/30 19:15:45;;;;;;;6.50;5.90;;;17.10;42.40;;;;;;10465782;28;20240;-75
2022/09/30 19:20:48;;;;;;;5.50;5.10;;;17.10;42.60;;;;;;10463428;28;20321;-75
2022/09/30 19:25:53;;;;;;;4.47;4.17;;;17.10;42.70;;;;;;10460576;28;20282;-75
2022/09/30 19:31:06;;;;;;;5.93;5.33;;;17.10;42.60;;;;;;10461481;28;20260;-75
2022/09/30 19:36:10;;;;;;;5.60;5.10;;;17.10;42.60;;;;;;10464228;28;20240;-75
2022/09/30 19:41:17;;;;;;;6.20;4.80;;;17.10;42.40;;;;;;10458875;28;20235;-75
2022/09/30 19:46:23;;;;;;;5.77;4.40;;;16.90;42.20;;;;;;10463880;28;20232;-75
2022/09/30 19:51:28;;;;;;;5.93;5.43;;;16.80;42.30;;;;;;10462392;28;20240;-75
2022/09/30 19:56:31;;;;;;;5.57;5.07;;;16.70;42.30;;;;;;10453965;28;20217;-75
2022/09/30 20:01:36;;;;;;;6.20;5.60;;;16.60;42.50;;;;;;10457888;28;20330;-75
2022/09/30 20:06:40;;;;;;;6.53;6.03;;;16.60;42.90;;;;;;10450902;28;20228;-75
2022/09/30 20:11:44;;;;;;;8.17;7.30;;;16.60;42.90;;;;;;10461385;28;20251;-75
2022/09/30 20:16:48;;;;;;;7.03;6.43;;;16.60;42.90;;;;;;10461500;28;20262;-75
2022/09/30 20:21:53;;;;;;;6.90;6.30;;;16.60;43.10;;;;;;10453943;28;20230;-75
2022/09/30 20:26:56;;;;;;;4.80;4.40;;;16.60;43.10;;;;;;10456294;28;20225;-76
2022/09/30 20:32:01;;;;;;;6.50;6.00;;;16.60;43.20;;;;;;10460709;28;20236;-76
2022/09/30 20:37:04;;;;;;;5.70;5.30;;;16.60;43.30;;;;;;10459714;28;20250;-76
2022/09/30 20:42:07;;;;;;;5.23;4.83;;;16.60;43.10;;;;;;10456738;28;20261;-76
2022/09/30 20:47:13;;;;;;;5.77;5.17;;;16.60;43.10;;;;;;10454135;28;20299;-75
2022/09/30 20:52:16;;;;;;;5.40;5.00;;;16.60;43.10;;;;;;10455841;28;20221;-75
2022/09/30 20:57:20;;;;;;;5.17;4.67;;;16.50;42.80;;;;;;10458496;28;20249;-76
2022/09/30 21:02:26;;;;;;;6.70;6.10;;;16.50;42.80;;;;;;10456463;28;20232;-75
2022/09/30 21:07:30;;;;;;;7.43;6.63;;;16.50;42.90;;;;;;10450234;28;20248;-75
2022/09/30 21:12:33;;;;;;;7.27;6.67;;;16.40;42.70;;;;;;10455099;28;20247;-75
2022/09/30 21:17:37;;;;;;;7.60;6.93;;;16.40;43.00;;;;;;10455641;28;20968;-75
2022/09/30 21:22:41;;;;;;;7.83;7.13;;;16.40;43.10;;;;;;10457751;28;20267;-75
2022/09/30 21:27:46;;;;;;;7.00;6.40;;;16.30;43.00;;;;;;10454390;28;20232;-75
2022/09/30 21:32:51;;;;;;;6.53;5.93;;;16.30;43.30;;;;;;10454993;28;20864;-75
2022/09/30 21:37:54;;;;;;;5.83;5.37;;;16.20;43.20;;;;;;10452452;28;20241;-75
2022/09/30 21:42:58;;;;;;;5.70;5.30;;;16.20;43.30;;;;;;10447040;28;20221;-75
2022/09/30 21:48:04;;;;;;;6.23;5.00;;;16.20;43.60;;;;;;10451033;28;20229;-75
2022/09/30 21:53:08;;;;;;;5.37;4.73;;;16.20;43.70;;;;;;10454452;28;20274;-75
2022/09/30 21:58:12;;;;;;;4.80;4.50;;;16.20;43.50;;;;;;10454908;28;20236;-75
2022/09/30 22:03:17;;;;;;;6.40;5.80;;;16.30;43.70;;;;;;10455479;28;20299;-75
2022/09/30 22:08:21;;;;;;;6.00;5.50;;;16.30;43.70;;;;;;10455949;28;20241;-75
2022/09/30 22:13:24;;;;;;;5.77;5.33;;;16.30;43.60;;;;;;10456606;28;20224;-75
2022/09/30 22:18:31;;;;;;;6.27;5.70;;;16.40;43.70;;;;;;10454511;28;20233;-75
2022/09/30 22:23:34;;;;;;;7.03;6.43;;;16.30;43.70;;;;;;10456630;28;20483;-75
2022/09/30 22:28:37;;;;;;;6.60;6.00;;;16.40;43.70;;;;;;10452475;28;20695;-75
2022/09/30 22:39:02;;;;;;;7.47;6.87;;;16.40;43.60;;;;;;10454179;28;20270;-76
2022/09/30 22:44:06;;;;;;;7.07;6.40;;;16.30;43.30;;;;;;10453142;28;20310;-75
2022/09/30 22:49:11;;;;;;;6.70;6.10;;;16.30;43.30;;;;;;10456379;28;20294;-75
2022/09/30 22:54:14;;;;;;;6.53;5.83;;;16.30;43.30;;;;;;10459988;28;20662;-75
2022/09/30 22:59:17;;;;;;;8.37;7.57;;;16.20;43.00;;;;;;10460986;28;20236;-75
2022/09/30 23:04:22;;;;;;;8.80;8.00;;;16.20;42.80;;;;;;10457363;28;20237;-75
2022/09/30 23:09:25;;;;;;;8.93;8.20;;;16.10;42.90;;;;;;10458705;28;20237;-75
2022/09/30 23:14:29;;;;;;;9.73;8.83;;;16.00;42.80;;;;;;10457110;28;20752;-75
2022/09/30 23:19:33;;;;;;;10.70;9.60;;;15.90;42.90;;;;;;10460093;28;20244;-75
2022/09/30 23:24:36;;;;;;;10.30;9.40;;;15.80;43.10;;;;;;10458163;28;20237;-75
2022/09/30 23:29:39;;;;;;;9.70;8.90;;;15.70;43.20;;;;;;10461746;28;20242;-75
2022/09/30 23:34:44;;;;;;;10.77;9.67;;;15.70;43.30;;;;;;10464673;28;20232;-75
2022/09/30 23:39:47;;;;;;;9.47;8.67;;;15.60;43.50;;;;;;10461024;28;20259;-75
2022/09/30 23:44:50;;;;;;;8.87;7.93;;;15.60;43.30;;;;;;10461221;28;20225;-75
2022/09/30 23:49:55;;;;;;;9.23;8.43;;;15.50;43.20;;;;;;10460216;28;20905;-75
2022/09/30 23:54:58;;;;;;;9.73;9.00;;;15.50;43.40;;;;;;10463887;28;20275;-75
